Kilsyth, West Virginia
Current Conditions -  °F | °C
As of 11:51 AM on Sunday 21 Dec 2014 (Local Time) from KBKW Reporting Station
Clear Clear  
Wind Chill: 39°   Ceiling: Unl
Heat Index: 39°   Visibility: 10mi
Dew Point: 26°   Wind: 3mph
Humidity: 60%   Direction: NA
Pressure: 30.2"   Gusts: NA
Location:  37.89°N, 81.18°W
Report Text: KBKW 211651Z AUTO VRB03KT 10SM CLR 04/M03 A3020 RMK AO2 SLP247 T00391033
Loading
Personal Weather Stations






























Interactive Weather Map New forecast layout! Learn more

10-Day Weather Forecast

Advertisements
Track Severe Weather on mobile